Elkhart Morton County Airport


Codes: KEHA/
Name: Elkhart Morton County Airport
City: Elkhart
Country: United States
Elevation: 3622 ft.

Photos at Elkhart Morton County Airport


   Photos courtesy of SpottingLog. You can add your own sightings and photos by signing up for a free trial today.



No photos found.

Weather at Elkhart Morton County Airport


Time (UTC)DescriptionTempratureWindCloud coverageVisibilityPressureHumidity
23-May-2024 21:00Clear Sky31°C20 mph, SW0%10000m1005hPa10%
24-May-2024 00:00Clear Sky31°C18 mph, SW0%10000m1002hPa9%
24-May-2024 03:00Clear Sky28°C20 mph, SW1%10000m1000hPa9%
24-May-2024 06:00Clear Sky21°C11 mph, W1%10000m1001hPa15%
24-May-2024 09:00Clear Sky15°C18 mph, N0%10000m1007hPa29%
24-May-2024 12:00Clear Sky12°C7 mph, N0%10000m1011hPa28%
24-May-2024 15:00Clear Sky17°C18 mph, NE0%10000m1011hPa22%
24-May-2024 18:00Clear Sky21°C9 mph, NE0%10000m1011hPa21%
24-May-2024 21:00Clear Sky24°C4 mph, E0%10000m1008hPa18%
25-May-2024 00:00Clear Sky25°C16 mph, SE1%10000m1006hPa18%
25-May-2024 03:00Few Clouds20°C13 mph, SE15%10000m1006hPa25%
25-May-2024 06:00Clear Sky17°C18 mph, SE9%10000m1007hPa33%
25-May-2024 09:00Few Clouds15°C16 mph, SE19%10000m1008hPa44%
25-May-2024 12:00Scattered Clouds14°C18 mph, SE28%10000m1007hPa57%
25-May-2024 15:00Clear Sky22°C22 mph, S0%10000m1003hPa35%
25-May-2024 18:00Clear Sky32°C25 mph, SW0%10000m998hPa7%
25-May-2024 21:00Clear Sky33°C29 mph, SW0%10000m995hPa7%
26-May-2024 00:00Clear Sky32°C22 mph, SW1%10000m994hPa8%
26-May-2024 03:00Clear Sky27°C22 mph, W0%10000m997hPa10%
26-May-2024 06:00Clear Sky20°C18 mph, NW0%10000m1002hPa26%
26-May-2024 09:00Clear Sky16°C9 mph, NW0%10000m1005hPa52%
26-May-2024 12:00Clear Sky15°C7 mph, NW0%10000m1007hPa51%
26-May-2024 15:00Clear Sky22°C2 mph, NW0%10000m1006hPa27%
26-May-2024 18:00Clear Sky28°C2 mph, E0%10000m1005hPa15%
26-May-2024 21:00Clear Sky31°C7 mph, W0%10000m1002hPa10%
27-May-2024 00:00Clear Sky31°C7 mph, NW0%10000m1001hPa10%
27-May-2024 03:00Scattered Clouds26°C4 mph, NE35%10000m1004hPa15%
27-May-2024 06:00Broken Clouds21°C25 mph, NE58%10000m1009hPa27%
27-May-2024 09:00Few Clouds17°C20 mph, N13%10000m1013hPa35%
27-May-2024 12:00Clear Sky14°C13 mph, N7%10000m1016hPa36%
27-May-2024 15:00Clear Sky19°C16 mph, N0%10000m1018hPa27%
27-May-2024 18:00Clear Sky24°C13 mph, N0%10000m1016hPa19%
27-May-2024 21:00Clear Sky27°C9 mph, N0%10000m1014hPa17%
28-May-2024 00:00Clear Sky27°C2 mph, NE0%10000m1013hPa17%
28-May-2024 03:00Clear Sky22°C9 mph, SE1%10000m1014hPa22%
28-May-2024 06:00Scattered Clouds18°C11 mph, SE32%10000m1017hPa32%
28-May-2024 09:00Few Clouds15°C9 mph, SE19%10000m1017hPa44%
28-May-2024 12:00Clear Sky14°C9 mph, S10%10000m1018hPa48%
28-May-2024 15:00Scattered Clouds23°C18 mph, S27%10000m1016hPa26%
28-May-2024 18:00Few Clouds31°C18 mph, SW16%10000m1012hPa18%